EJA3420 KADS-KFLL
Flight info
| Callsign | EJA3420 |
|---|---|
| Flight time | 2h 4m |
| Altitude | 45000 |
| Route | KUSSO2 ZALEA MARVE MUURY HEVVN BITNY CLEOO TEEKY4 |
| Aircraft | C700/M-SBDGHM1RWXY/LB2 |
Departure
| Time | 2026-05-03 23:01 |
|---|---|
| Airport | Addison Airport (KADS) |
Arrival
| Time | 2026-05-04 01:06 |
|---|---|
| Airport | Fort Lauderdale Hollywood International Airport (KFLL) |
| Time | Latitude | Longitude | Altitude | Speed | Heading |
|---|---|---|---|---|---|
| 2026-05-03 22:47 | 32.97065 | -96.83576 | 647 ft | 0 kts | 249° |
| 2026-05-03 22:55 | 32.97065 | -96.83577 | 647 ft | 0 kts | 247° |
| 2026-05-03 22:55 | 32.97055 | -96.83576 | 648 ft | 2 kts | 157° |
| 2026-05-03 22:55 | 32.97028 | -96.83557 | 647 ft | 8 kts | 147° |
| 2026-05-03 22:56 | 32.96983 | -96.83527 | 648 ft | 6 kts | 179° |
| 2026-05-03 22:56 | 32.96964 | -96.83565 | 647 ft | 6 kts | 248° |
| 2026-05-03 22:56 | 32.96973 | -96.83593 | 651 ft | 5 kts | 331° |
| 2026-05-03 22:56 | 32.97048 | -96.83627 | 647 ft | 15 kts | 339° |
| 2026-05-03 22:57 | 32.97154 | -96.83673 | 647 ft | 18 kts | 341° |
| 2026-05-03 22:57 | 32.97275 | -96.83728 | 651 ft | 20 kts | 338° |
| 2026-05-03 22:57 | 32.97411 | -96.83787 | 648 ft | 22 kts | 341° |
| 2026-05-03 22:57 | 32.97563 | -96.83852 | 647 ft | 24 kts | 339° |
| 2026-05-03 22:58 | 32.97704 | -96.83916 | 648 ft | 11 kts | 339° |
| 2026-05-03 22:58 | 32.97788 | -96.83943 | 647 ft | 13 kts | 0° |
| 2026-05-03 22:58 | 32.97798 | -96.83961 | 647 ft | 0 kts | 263° |
| 2026-05-03 23:00 | 32.97789 | -96.83995 | 649 ft | 10 kts | 248° |
| 2026-05-03 23:00 | 32.97728 | -96.84027 | 647 ft | 4 kts | 160° |
| 2026-05-03 23:01 | 32.97684 | -96.84007 | 648 ft | 34 kts | 160° |
| 2026-05-03 23:01 | 32.97140 | -96.83771 | 656 ft | 129 kts | 162° |
| 2026-05-03 23:01 | 32.96125 | -96.83309 | 1054 ft | 187 kts | 160° |
| 2026-05-03 23:01 | 32.94752 | -96.82652 | 1759 ft | 221 kts | 160° |
| 2026-05-03 23:02 | 32.93499 | -96.81831 | 2596 ft | 199 kts | 138° |
| 2026-05-03 23:02 | 32.92871 | -96.80352 | 2991 ft | 208 kts | 109° |
| 2026-05-03 23:02 | 32.92424 | -96.78699 | 3283 ft | 215 kts | 115° |
| 2026-05-03 23:02 | 32.91873 | -96.76964 | 3377 ft | 233 kts | 115° |
| 2026-05-03 23:03 | 32.91297 | -96.75120 | 3437 ft | 251 kts | 115° |
| 2026-05-03 23:03 | 32.90671 | -96.73075 | 4306 ft | 264 kts | 112° |
| 2026-05-03 23:03 | 32.90142 | -96.70978 | 6106 ft | 265 kts | 111° |
| 2026-05-03 23:03 | 32.89486 | -96.68905 | 7662 ft | 271 kts | 118° |
| 2026-05-03 23:04 | 32.88501 | -96.66950 | 9062 ft | 281 kts | 127° |
| 2026-05-03 23:04 | 32.87344 | -96.65026 | 10414 ft | 294 kts | 126° |
| 2026-05-03 23:04 | 32.86173 | -96.62900 | 11387 ft | 319 kts | 123° |
| 2026-05-03 23:04 | 32.85008 | -96.60614 | 12823 ft | 327 kts | 121° |
| 2026-05-03 23:05 | 32.84134 | -96.58088 | 14241 ft | 338 kts | 107° |
| 2026-05-03 23:05 | 32.83728 | -96.55322 | 14622 ft | 351 kts | 92° |
| 2026-05-03 23:05 | 32.83683 | -96.52392 | 15822 ft | 352 kts | 92° |
| 2026-05-03 23:05 | 32.83495 | -96.49465 | 17183 ft | 359 kts | 98° |
| 2026-05-03 23:06 | 32.82823 | -96.46558 | 18345 ft | 371 kts | 111° |
| 2026-05-03 23:06 | 32.81608 | -96.43819 | 19358 ft | 380 kts | 124° |
| 2026-05-03 23:06 | 32.79875 | -96.41411 | 20325 ft | 388 kts | 138° |
| 2026-05-03 23:06 | 32.77697 | -96.39478 | 21235 ft | 395 kts | 149° |
| 2026-05-03 23:07 | 32.75355 | -96.37695 | 22147 ft | 404 kts | 148° |
| 2026-05-03 23:07 | 32.73205 | -96.35480 | 23026 ft | 415 kts | 135° |
| 2026-05-03 23:07 | 32.71402 | -96.32751 | 23827 ft | 426 kts | 122° |
| 2026-05-03 23:07 | 32.70056 | -96.29581 | 24588 ft | 434 kts | 110° |
| 2026-05-03 23:08 | 32.69256 | -96.26111 | 25344 ft | 439 kts | 97° |
| 2026-05-03 23:08 | 32.68957 | -96.22481 | 26074 ft | 445 kts | 91° |
| 2026-05-03 23:08 | 32.68721 | -96.18787 | 26795 ft | 453 kts | 91° |
| 2026-05-03 23:08 | 32.68473 | -96.15032 | 27500 ft | 460 kts | 91° |
| 2026-05-03 23:09 | 32.68313 | -96.12647 | 27948 ft | 465 kts | 91° |
| 2026-05-03 23:09 | 32.68248 | -96.11683 | 28119 ft | 467 kts | 91° |
| 2026-05-03 23:09 | 32.67986 | -96.07814 | 28848 ft | 473 kts | 91° |
| 2026-05-03 23:09 | 32.67722 | -96.03897 | 29645 ft | 479 kts | 91° |
| 2026-05-03 23:10 | 32.67456 | -95.99932 | 30299 ft | 486 kts | 91° |
| 2026-05-03 23:10 | 32.67181 | -95.95905 | 30871 ft | 493 kts | 90° |
| 2026-05-03 23:10 | 32.66902 | -95.91819 | 31414 ft | 500 kts | 90° |
| 2026-05-03 23:10 | 32.66616 | -95.87678 | 31939 ft | 507 kts | 90° |
| 2026-05-03 23:11 | 32.66327 | -95.83482 | 32460 ft | 513 kts | 90° |
| 2026-05-03 23:11 | 32.66031 | -95.79229 | 32975 ft | 520 kts | 90° |
| 2026-05-03 23:11 | 32.65733 | -95.74938 | 33555 ft | 523 kts | 90° |
| 2026-05-03 23:11 | 32.65428 | -95.70629 | 34231 ft | 524 kts | 89° |
| 2026-05-03 23:12 | 32.65128 | -95.66385 | 34936 ft | 521 kts | 89° |
| 2026-05-03 23:12 | 32.64826 | -95.62105 | 35542 ft | 521 kts | 89° |
| 2026-05-03 23:12 | 32.64523 | -95.57822 | 36087 ft | 521 kts | 89° |
| 2026-05-03 23:12 | 32.64216 | -95.53539 | 36613 ft | 521 kts | 89° |
| 2026-05-03 23:13 | 32.63907 | -95.49254 | 37123 ft | 521 kts | 89° |
| 2026-05-03 23:13 | 32.63595 | -95.44916 | 37610 ft | 521 kts | 89° |
| 2026-05-03 23:13 | 32.63289 | -95.40693 | 38060 ft | 521 kts | 89° |
| 2026-05-03 23:13 | 32.62977 | -95.36416 | 38486 ft | 521 kts | 89° |
| 2026-05-03 23:14 | 32.62664 | -95.32134 | 38888 ft | 520 kts | 89° |
| 2026-05-03 23:14 | 32.62349 | -95.27867 | 39288 ft | 518 kts | 89° |
| 2026-05-03 23:14 | 32.62035 | -95.23620 | 39596 ft | 517 kts | 89° |
| 2026-05-03 23:14 | 32.61720 | -95.19373 | 39921 ft | 516 kts | 90° |
| 2026-05-03 23:15 | 32.61405 | -95.15133 | 40223 ft | 516 kts | 90° |
| 2026-05-03 23:15 | 32.61088 | -95.10899 | 40509 ft | 515 kts | 90° |
| 2026-05-03 23:15 | 32.60767 | -95.06665 | 40789 ft | 515 kts | 90° |
| 2026-05-03 23:15 | 32.60449 | -95.02440 | 41057 ft | 514 kts | 90° |
| 2026-05-03 23:16 | 32.60129 | -94.98219 | 41321 ft | 514 kts | 91° |
| 2026-05-03 23:16 | 32.59807 | -94.94005 | 41610 ft | 513 kts | 91° |
| 2026-05-03 23:16 | 32.59485 | -94.89805 | 41916 ft | 511 kts | 91° |
| 2026-05-03 23:16 | 32.59162 | -94.85611 | 42164 ft | 511 kts | 91° |
| 2026-05-03 23:17 | 32.58839 | -94.81417 | 42387 ft | 510 kts | 91° |
| 2026-05-03 23:17 | 32.58352 | -94.77244 | 42590 ft | 513 kts | 101° |
| 2026-05-03 23:17 | 32.57345 | -94.73182 | 42806 ft | 514 kts | 108° |
| 2026-05-03 23:17 | 32.56198 | -94.69172 | 43026 ft | 514 kts | 108° |
| 2026-05-03 23:18 | 32.55067 | -94.65154 | 43237 ft | 513 kts | 108° |
| 2026-05-03 23:18 | 32.53943 | -94.61141 | 43450 ft | 513 kts | 108° |
| 2026-05-03 23:18 | 32.52812 | -94.57135 | 43602 ft | 513 kts | 108° |
| 2026-05-03 23:18 | 32.51672 | -94.53126 | 43792 ft | 513 kts | 108° |
| 2026-05-03 23:19 | 32.50535 | -94.49120 | 43996 ft | 512 kts | 108° |
| 2026-05-03 23:19 | 32.49403 | -94.45115 | 44182 ft | 512 kts | 108° |
| 2026-05-03 23:19 | 32.48269 | -94.41122 | 44376 ft | 511 kts | 109° |
| 2026-05-03 23:19 | 32.47131 | -94.37132 | 44560 ft | 511 kts | 109° |
| 2026-05-03 23:20 | 32.45995 | -94.33147 | 44730 ft | 511 kts | 109° |
| 2026-05-03 23:20 | 32.44861 | -94.29165 | 44876 ft | 510 kts | 109° |
| 2026-05-03 23:20 | 32.43738 | -94.25236 | 44999 ft | 510 kts | 109° |
| 2026-05-03 23:21 | 32.41452 | -94.17249 | 45095 ft | 515 kts | 109° |
| 2026-05-03 23:21 | 32.39134 | -94.09180 | 45104 ft | 521 kts | 109° |
| 2026-05-03 23:22 | 32.35601 | -93.96909 | 45103 ft | 530 kts | 109° |
| 2026-05-03 23:22 | 32.33207 | -93.88627 | 45126 ft | 535 kts | 109° |
| 2026-05-03 23:23 | 32.30786 | -93.80272 | 45133 ft | 540 kts | 109° |
| 2026-05-03 23:23 | 32.28335 | -93.71844 | 45109 ft | 544 kts | 109° |
| 2026-05-03 23:24 | 32.25862 | -93.63359 | 45123 ft | 548 kts | 109° |
| 2026-05-03 23:24 | 32.23364 | -93.54809 | 45124 ft | 553 kts | 109° |
| 2026-05-03 23:25 | 32.21289 | -93.47652 | 45123 ft | 556 kts | 107° |
| 2026-05-03 23:25 | 32.19447 | -93.38783 | 45127 ft | 557 kts | 103° |
| 2026-05-03 23:26 | 32.17587 | -93.29902 | 45129 ft | 557 kts | 103° |
| 2026-05-03 23:26 | 32.15751 | -93.21020 | 45128 ft | 557 kts | 103° |
| 2026-05-03 23:27 | 32.13892 | -93.12148 | 45131 ft | 556 kts | 103° |
| 2026-05-03 23:27 | 32.12038 | -93.03287 | 45131 ft | 556 kts | 104° |
| 2026-05-03 23:28 | 32.10181 | -92.94465 | 45128 ft | 553 kts | 104° |
| 2026-05-03 23:28 | 32.08323 | -92.85661 | 45129 ft | 554 kts | 104° |
| 2026-05-03 23:29 | 32.06455 | -92.76847 | 45129 ft | 554 kts | 104° |
| 2026-05-03 23:29 | 32.04579 | -92.68023 | 45115 ft | 555 kts | 104° |
| 2026-05-03 23:30 | 32.02692 | -92.59189 | 45125 ft | 556 kts | 104° |
| 2026-05-03 23:30 | 32.00798 | -92.50346 | 45127 ft | 557 kts | 104° |
| 2026-05-03 23:31 | 31.98896 | -92.41500 | 45130 ft | 557 kts | 104° |
| 2026-05-03 23:31 | 31.97001 | -92.32722 | 45130 ft | 557 kts | 104° |
| 2026-05-03 23:32 | 31.95089 | -92.23890 | 45132 ft | 556 kts | 104° |
| 2026-05-03 23:32 | 31.93173 | -92.15080 | 45131 ft | 555 kts | 104° |
| 2026-05-03 23:33 | 31.91256 | -92.06292 | 45123 ft | 554 kts | 104° |
| 2026-05-03 23:33 | 31.89336 | -91.97522 | 45126 ft | 553 kts | 104° |
| 2026-05-03 23:34 | 31.87410 | -91.88753 | 45132 ft | 555 kts | 105° |
| 2026-05-03 23:34 | 31.85468 | -91.79953 | 45136 ft | 556 kts | 105° |
| 2026-05-03 23:35 | 31.83519 | -91.71136 | 45136 ft | 557 kts | 105° |
| 2026-05-03 23:35 | 31.81563 | -91.62330 | 45143 ft | 557 kts | 105° |
| 2026-05-03 23:36 | 31.79602 | -91.53531 | 45138 ft | 556 kts | 105° |
| 2026-05-03 23:36 | 31.77629 | -91.44710 | 45128 ft | 559 kts | 105° |
| 2026-05-03 23:37 | 31.75645 | -91.35869 | 45132 ft | 560 kts | 105° |
| 2026-05-03 23:37 | 31.73655 | -91.27028 | 45131 ft | 560 kts | 105° |
| 2026-05-03 23:38 | 31.71656 | -91.18187 | 45137 ft | 560 kts | 105° |
| 2026-05-03 23:38 | 31.69653 | -91.09350 | 45138 ft | 560 kts | 105° |
| 2026-05-03 23:39 | 31.67654 | -91.00568 | 45139 ft | 561 kts | 105° |
| 2026-05-03 23:39 | 31.65635 | -90.91721 | 45139 ft | 561 kts | 105° |
| 2026-05-03 23:40 | 31.63607 | -90.82874 | 45144 ft | 561 kts | 105° |
| 2026-05-03 23:40 | 31.61578 | -90.74049 | 45147 ft | 559 kts | 105° |
| 2026-05-03 23:41 | 31.59553 | -90.65268 | 45146 ft | 557 kts | 105° |
| 2026-05-03 23:41 | 31.57523 | -90.56503 | 45138 ft | 557 kts | 105° |
| 2026-05-03 23:42 | 31.55489 | -90.47742 | 45135 ft | 557 kts | 106° |
| 2026-05-03 23:42 | 31.53432 | -90.38991 | 45132 ft | 556 kts | 108° |
| 2026-05-03 23:43 | 31.51024 | -90.30393 | 45129 ft | 555 kts | 110° |
| 2026-05-03 23:43 | 31.48631 | -90.21768 | 45131 ft | 557 kts | 109° |
| 2026-05-03 23:44 | 31.46208 | -90.13138 | 45138 ft | 558 kts | 110° |
| 2026-05-03 23:44 | 31.43790 | -90.04506 | 45140 ft | 558 kts | 109° |
| 2026-05-03 23:45 | 31.41362 | -89.95887 | 45141 ft | 556 kts | 110° |
| 2026-05-03 23:45 | 31.38940 | -89.87305 | 45139 ft | 555 kts | 110° |
| 2026-05-03 23:46 | 31.36515 | -89.78746 | 45138 ft | 554 kts | 110° |
| 2026-05-03 23:46 | 31.34088 | -89.70195 | 45138 ft | 554 kts | 110° |
| 2026-05-03 23:47 | 31.31653 | -89.61646 | 45141 ft | 554 kts | 110° |
| 2026-05-03 23:47 | 31.29227 | -89.53149 | 45138 ft | 554 kts | 110° |
| 2026-05-03 23:48 | 31.26780 | -89.44603 | 45141 ft | 555 kts | 110° |
| 2026-05-03 23:48 | 31.24323 | -89.36049 | 45141 ft | 556 kts | 110° |
| 2026-05-03 23:49 | 31.21855 | -89.27478 | 45135 ft | 558 kts | 110° |
| 2026-05-03 23:49 | 31.19370 | -89.18876 | 45140 ft | 559 kts | 110° |
| 2026-05-03 23:50 | 31.17286 | -89.11676 | 45143 ft | 558 kts | 110° |
| 2026-05-03 23:50 | 31.14389 | -89.01700 | 45140 ft | 558 kts | 110° |
| 2026-05-03 23:51 | 31.11895 | -88.93136 | 45139 ft | 557 kts | 110° |
| 2026-05-03 23:51 | 31.09395 | -88.84580 | 45146 ft | 557 kts | 110° |
| 2026-05-03 23:52 | 31.06899 | -88.76053 | 45144 ft | 555 kts | 111° |
| 2026-05-03 23:52 | 31.04393 | -88.67524 | 45144 ft | 557 kts | 111° |
| 2026-05-03 23:53 | 31.01875 | -88.58972 | 45142 ft | 558 kts | 111° |
| 2026-05-03 23:53 | 30.99346 | -88.50411 | 45140 ft | 559 kts | 111° |
| 2026-05-03 23:54 | 30.96817 | -88.41865 | 45132 ft | 557 kts | 111° |
| 2026-05-03 23:54 | 30.94287 | -88.33348 | 45111 ft | 556 kts | 111° |
| 2026-05-03 23:55 | 30.91744 | -88.24807 | 45127 ft | 560 kts | 111° |
| 2026-05-03 23:55 | 30.89186 | -88.16243 | 45128 ft | 560 kts | 111° |
| 2026-05-03 23:56 | 30.86623 | -88.07681 | 45132 ft | 560 kts | 111° |
| 2026-05-03 23:56 | 30.84067 | -87.99166 | 45132 ft | 556 kts | 111° |
| 2026-05-03 23:57 | 30.81512 | -87.90682 | 45130 ft | 556 kts | 111° |
| 2026-05-03 23:57 | 30.78949 | -87.82190 | 45130 ft | 556 kts | 112° |
| 2026-05-03 23:58 | 30.76335 | -87.73732 | 45124 ft | 555 kts | 116° |
| 2026-05-03 23:58 | 30.73030 | -87.65653 | 45117 ft | 553 kts | 119° |
| 2026-05-03 23:59 | 30.69763 | -87.57578 | 45114 ft | 552 kts | 119° |
| 2026-05-03 23:59 | 30.66457 | -87.49544 | 45105 ft | 551 kts | 119° |
| 2026-05-04 00:00 | 30.63164 | -87.41488 | 45107 ft | 553 kts | 119° |
| 2026-05-04 00:00 | 30.59847 | -87.33431 | 45104 ft | 553 kts | 119° |
| 2026-05-04 00:01 | 30.56535 | -87.25381 | 45112 ft | 551 kts | 120° |
| 2026-05-04 00:01 | 30.53227 | -87.17375 | 45107 ft | 550 kts | 120° |
| 2026-05-04 00:02 | 30.49914 | -87.09361 | 45107 ft | 551 kts | 120° |
| 2026-05-04 00:02 | 30.46588 | -87.01340 | 45118 ft | 552 kts | 120° |
| 2026-05-04 00:03 | 30.43255 | -86.93316 | 45123 ft | 553 kts | 120° |
| 2026-05-04 00:03 | 30.39923 | -86.85314 | 45123 ft | 550 kts | 120° |
| 2026-05-04 00:04 | 30.36599 | -86.77352 | 45106 ft | 549 kts | 120° |
| 2026-05-04 00:04 | 30.33270 | -86.69389 | 45092 ft | 551 kts | 120° |
| 2026-05-04 00:05 | 30.29909 | -86.61369 | 45099 ft | 556 kts | 120° |
| 2026-05-04 00:05 | 30.26528 | -86.53317 | 45108 ft | 557 kts | 121° |
| 2026-05-04 00:06 | 30.23161 | -86.45317 | 45114 ft | 557 kts | 121° |
| 2026-05-04 00:06 | 30.19765 | -86.37261 | 45116 ft | 557 kts | 121° |
| 2026-05-04 00:07 | 30.16366 | -86.29220 | 45117 ft | 557 kts | 121° |
| 2026-05-04 00:07 | 30.12966 | -86.21195 | 45117 ft | 556 kts | 121° |
| 2026-05-04 00:08 | 30.09566 | -86.13182 | 45108 ft | 555 kts | 121° |
| 2026-05-04 00:08 | 30.06172 | -86.05201 | 45106 ft | 553 kts | 121° |
| 2026-05-04 00:09 | 30.02776 | -85.97238 | 45104 ft | 554 kts | 121° |
| 2026-05-04 00:09 | 29.99355 | -85.89228 | 45098 ft | 558 kts | 121° |
| 2026-05-04 00:10 | 29.95919 | -85.81202 | 45090 ft | 559 kts | 121° |
| 2026-05-04 00:10 | 29.92469 | -85.73159 | 45091 ft | 559 kts | 121° |
| 2026-05-04 00:11 | 29.89605 | -85.66490 | 45085 ft | 558 kts | 121° |
| 2026-05-04 00:11 | 29.86164 | -85.58499 | 45083 ft | 556 kts | 121° |
| 2026-05-04 00:12 | 29.82726 | -85.50533 | 45078 ft | 555 kts | 121° |
| 2026-05-04 00:12 | 29.78719 | -85.41268 | 45080 ft | 557 kts | 121° |
| 2026-05-04 00:13 | 29.75821 | -85.34580 | 45083 ft | 558 kts | 122° |
| 2026-05-04 00:13 | 29.72353 | -85.26595 | 45101 ft | 558 kts | 122° |
| 2026-05-04 00:14 | 29.68874 | -85.18599 | 45108 ft | 559 kts | 122° |
| 2026-05-04 00:14 | 29.65395 | -85.10616 | 45111 ft | 558 kts | 122° |
| 2026-05-04 00:15 | 29.61915 | -85.02651 | 45104 ft | 557 kts | 122° |
| 2026-05-04 00:15 | 29.58446 | -84.94724 | 45104 ft | 554 kts | 122° |
| 2026-05-04 00:16 | 29.54975 | -84.86818 | 45105 ft | 555 kts | 122° |
| 2026-05-04 00:16 | 29.51496 | -84.78902 | 45107 ft | 556 kts | 122° |
| 2026-05-04 00:17 | 29.48007 | -84.70981 | 45108 ft | 556 kts | 122° |
| 2026-05-04 00:17 | 29.44533 | -84.63108 | 45101 ft | 556 kts | 122° |
| 2026-05-04 00:18 | 29.41047 | -84.55223 | 45103 ft | 554 kts | 123° |
| 2026-05-04 00:18 | 29.37542 | -84.47322 | 45099 ft | 557 kts | 123° |
| 2026-05-04 00:19 | 29.34023 | -84.39392 | 45098 ft | 559 kts | 123° |
| 2026-05-04 00:19 | 29.30490 | -84.31454 | 45100 ft | 559 kts | 123° |
| 2026-05-04 00:20 | 29.26955 | -84.23522 | 45097 ft | 559 kts | 123° |
| 2026-05-04 00:20 | 29.23414 | -84.15596 | 45095 ft | 559 kts | 123° |
| 2026-05-04 00:21 | 29.19869 | -84.07677 | 45095 ft | 559 kts | 123° |
| 2026-05-04 00:21 | 29.16319 | -83.99764 | 45093 ft | 559 kts | 123° |
| 2026-05-04 00:22 | 29.12763 | -83.91853 | 45091 ft | 559 kts | 123° |
| 2026-05-04 00:22 | 29.09204 | -83.83946 | 45085 ft | 559 kts | 124° |
| 2026-05-04 00:23 | 29.05625 | -83.76018 | 45081 ft | 563 kts | 124° |
| 2026-05-04 00:23 | 29.02019 | -83.68041 | 45082 ft | 566 kts | 124° |
| 2026-05-04 00:24 | 28.98390 | -83.60035 | 45084 ft | 568 kts | 124° |
| 2026-05-04 00:24 | 28.94759 | -83.52031 | 45074 ft | 567 kts | 124° |
| 2026-05-04 00:25 | 28.91124 | -83.44043 | 45075 ft | 567 kts | 124° |
| 2026-05-04 00:25 | 28.87485 | -83.36055 | 45079 ft | 567 kts | 124° |
| 2026-05-04 00:26 | 28.83861 | -83.28121 | 45075 ft | 568 kts | 124° |
| 2026-05-04 00:26 | 28.80207 | -83.20151 | 45080 ft | 566 kts | 125° |
| 2026-05-04 00:27 | 28.75676 | -83.13036 | 45074 ft | 545 kts | 142° |
| 2026-05-04 00:27 | 28.72953 | -83.10103 | 45071 ft | 534 kts | 150° |
| 2026-05-04 00:27 | 28.70011 | -83.07603 | 45070 ft | 524 kts | 156° |
| 2026-05-04 00:28 | 28.64005 | -83.02870 | 45075 ft | 526 kts | 156° |
| 2026-05-04 00:28 | 28.57998 | -82.98127 | 45074 ft | 526 kts | 156° |
| 2026-05-04 00:29 | 28.51981 | -82.93389 | 45077 ft | 526 kts | 156° |
| 2026-05-04 00:29 | 28.45961 | -82.88652 | 45064 ft | 524 kts | 156° |
| 2026-05-04 00:30 | 28.39978 | -82.83954 | 45058 ft | 522 kts | 157° |
| 2026-05-04 00:30 | 28.34015 | -82.79276 | 45056 ft | 520 kts | 157° |
| 2026-05-04 00:31 | 28.28082 | -82.74625 | 45055 ft | 516 kts | 157° |
| 2026-05-04 00:31 | 28.22167 | -82.70006 | 45048 ft | 517 kts | 157° |
| 2026-05-04 00:32 | 28.16237 | -82.65370 | 45032 ft | 517 kts | 157° |
| 2026-05-04 00:32 | 28.10323 | -82.60756 | 45056 ft | 515 kts | 158° |
| 2026-05-04 00:33 | 28.01420 | -82.53976 | 45056 ft | 505 kts | 163° |
| 2026-05-04 00:33 | 27.98303 | -82.52245 | 45059 ft | 493 kts | 170° |
| 2026-05-04 00:34 | 27.95119 | -82.50943 | 45059 ft | 482 kts | 176° |
| 2026-05-04 00:34 | 27.88722 | -82.48686 | 45045 ft | 482 kts | 175° |
| 2026-05-04 00:35 | 27.82333 | -82.46407 | 45043 ft | 479 kts | 176° |
| 2026-05-04 00:35 | 27.76021 | -82.44181 | 45039 ft | 478 kts | 176° |
| 2026-05-04 00:36 | 27.69677 | -82.41932 | 45038 ft | 478 kts | 176° |
| 2026-05-04 00:36 | 27.63335 | -82.39693 | 45039 ft | 478 kts | 176° |
| 2026-05-04 00:36 | 27.60164 | -82.38572 | 44627 ft | 477 kts | 176° |
| 2026-05-04 00:37 | 27.57019 | -82.37456 | 43973 ft | 470 kts | 176° |
| 2026-05-04 00:37 | 27.53934 | -82.36360 | 43358 ft | 460 kts | 176° |
| 2026-05-04 00:37 | 27.50914 | -82.35298 | 42755 ft | 450 kts | 177° |
| 2026-05-04 00:37 | 27.47951 | -82.34261 | 42170 ft | 442 kts | 177° |
| 2026-05-04 00:38 | 27.45043 | -82.33236 | 41591 ft | 435 kts | 177° |
| 2026-05-04 00:38 | 27.42169 | -82.32227 | 41022 ft | 431 kts | 177° |
| 2026-05-04 00:38 | 27.39307 | -82.31198 | 40453 ft | 435 kts | 175° |
| 2026-05-04 00:38 | 27.36475 | -82.29829 | 39877 ft | 451 kts | 168° |
| 2026-05-04 00:39 | 27.33687 | -82.28097 | 39281 ft | 461 kts | 164° |
| 2026-05-04 00:39 | 27.30902 | -82.26309 | 38664 ft | 460 kts | 165° |
| 2026-05-04 00:39 | 27.28119 | -82.24552 | 38021 ft | 457 kts | 165° |
| 2026-05-04 00:39 | 27.25349 | -82.22802 | 37379 ft | 456 kts | 164° |
| 2026-05-04 00:40 | 27.22580 | -82.21047 | 36816 ft | 459 kts | 163° |
| 2026-05-04 00:40 | 27.19788 | -82.19275 | 36211 ft | 462 kts | 163° |
| 2026-05-04 00:40 | 27.16987 | -82.17496 | 35601 ft | 462 kts | 163° |
| 2026-05-04 00:40 | 27.14184 | -82.15719 | 34983 ft | 462 kts | 162° |
| 2026-05-04 00:41 | 27.11382 | -82.13948 | 34390 ft | 462 kts | 162° |
| 2026-05-04 00:41 | 27.08583 | -82.12178 | 33748 ft | 462 kts | 162° |
| 2026-05-04 00:41 | 27.05776 | -82.10405 | 33134 ft | 465 kts | 162° |
| 2026-05-04 00:41 | 27.02943 | -82.08618 | 32520 ft | 470 kts | 161° |
| 2026-05-04 00:42 | 27.00088 | -82.06814 | 31899 ft | 473 kts | 161° |
| 2026-05-04 00:42 | 26.97271 | -82.04838 | 31273 ft | 487 kts | 154° |
| 2026-05-04 00:42 | 26.94604 | -82.02396 | 31046 ft | 515 kts | 146° |
| 2026-05-04 00:42 | 26.92048 | -81.99473 | 31077 ft | 531 kts | 141° |
| 2026-05-04 00:43 | 26.89543 | -81.96481 | 30805 ft | 517 kts | 141° |
| 2026-05-04 00:43 | 26.87092 | -81.93570 | 30176 ft | 496 kts | 142° |
| 2026-05-04 00:43 | 26.84788 | -81.90867 | 29516 ft | 478 kts | 142° |
| 2026-05-04 00:43 | 26.82514 | -81.88200 | 28920 ft | 470 kts | 142° |
| 2026-05-04 00:44 | 26.80259 | -81.85546 | 28336 ft | 473 kts | 142° |
| 2026-05-04 00:44 | 26.77985 | -81.82867 | 27747 ft | 476 kts | 142° |
| 2026-05-04 00:44 | 26.75707 | -81.80178 | 27159 ft | 476 kts | 142° |
| 2026-05-04 00:44 | 26.73409 | -81.77506 | 26563 ft | 476 kts | 142° |
| 2026-05-04 00:45 | 26.71105 | -81.74850 | 25968 ft | 476 kts | 142° |
| 2026-05-04 00:45 | 26.68811 | -81.72180 | 25395 ft | 476 kts | 141° |
| 2026-05-04 00:45 | 26.66523 | -81.69507 | 24808 ft | 475 kts | 141° |
| 2026-05-04 00:45 | 26.64227 | -81.66844 | 24222 ft | 475 kts | 141° |
| 2026-05-04 00:46 | 26.62064 | -81.64015 | 23590 ft | 485 kts | 134° |
| 2026-05-04 00:46 | 26.60068 | -81.60974 | 22978 ft | 485 kts | 133° |
| 2026-05-04 00:46 | 26.58028 | -81.57971 | 22379 ft | 485 kts | 134° |
| 2026-05-04 00:46 | 26.56036 | -81.55042 | 21766 ft | 460 kts | 134° |
| 2026-05-04 00:47 | 26.54182 | -81.52251 | 21203 ft | 436 kts | 133° |
| 2026-05-04 00:47 | 26.52410 | -81.49608 | 20682 ft | 415 kts | 134° |
| 2026-05-04 00:47 | 26.50703 | -81.47097 | 20174 ft | 398 kts | 134° |
| 2026-05-04 00:47 | 26.49041 | -81.44648 | 19691 ft | 395 kts | 134° |
| 2026-05-04 00:48 | 26.47378 | -81.42190 | 19198 ft | 398 kts | 134° |
| 2026-05-04 00:48 | 26.45713 | -81.39717 | 18713 ft | 399 kts | 133° |
| 2026-05-04 00:48 | 26.44050 | -81.37248 | 18204 ft | 397 kts | 133° |
| 2026-05-04 00:48 | 26.42394 | -81.34801 | 17696 ft | 393 kts | 133° |
| 2026-05-04 00:49 | 26.40735 | -81.32400 | 17196 ft | 388 kts | 136° |
| 2026-05-04 00:49 | 26.39009 | -81.30109 | 16729 ft | 385 kts | 136° |
| 2026-05-04 00:49 | 26.37294 | -81.27832 | 16256 ft | 383 kts | 135° |
| 2026-05-04 00:49 | 26.35598 | -81.25552 | 15784 ft | 380 kts | 135° |
| 2026-05-04 00:50 | 26.33917 | -81.23291 | 15319 ft | 378 kts | 135° |
| 2026-05-04 00:50 | 26.32237 | -81.21052 | 14856 ft | 375 kts | 135° |
| 2026-05-04 00:50 | 26.30568 | -81.18827 | 14395 ft | 372 kts | 135° |
| 2026-05-04 00:50 | 26.28916 | -81.16620 | 13925 ft | 369 kts | 134° |
| 2026-05-04 00:51 | 26.27278 | -81.14443 | 13431 ft | 363 kts | 134° |
| 2026-05-04 00:51 | 26.25649 | -81.12313 | 12982 ft | 359 kts | 135° |
| 2026-05-04 00:51 | 26.24039 | -81.10201 | 12543 ft | 354 kts | 134° |
| 2026-05-04 00:51 | 26.22486 | -81.08149 | 12113 ft | 339 kts | 134° |
| 2026-05-04 00:52 | 26.20997 | -81.06188 | 11706 ft | 325 kts | 134° |
| 2026-05-04 00:52 | 26.19557 | -81.04298 | 11310 ft | 315 kts | 134° |
| 2026-05-04 00:52 | 26.18157 | -81.02460 | 10931 ft | 309 kts | 134° |
| 2026-05-04 00:52 | 26.16769 | -81.00642 | 10553 ft | 308 kts | 134° |
| 2026-05-04 00:53 | 26.15455 | -80.98763 | 10172 ft | 310 kts | 125° |
| 2026-05-04 00:53 | 26.14559 | -80.96579 | 9789 ft | 311 kts | 110° |
| 2026-05-04 00:53 | 26.14093 | -80.94229 | 9390 ft | 311 kts | 101° |
| 2026-05-04 00:53 | 26.13714 | -80.91868 | 9010 ft | 309 kts | 102° |
| 2026-05-04 00:54 | 26.13313 | -80.89529 | 8630 ft | 307 kts | 102° |
| 2026-05-04 00:54 | 26.12926 | -80.87194 | 8257 ft | 306 kts | 102° |
| 2026-05-04 00:54 | 26.12543 | -80.84874 | 7882 ft | 304 kts | 102° |
| 2026-05-04 00:54 | 26.12160 | -80.82570 | 7510 ft | 301 kts | 102° |
| 2026-05-04 00:55 | 26.11782 | -80.80296 | 7143 ft | 296 kts | 102° |
| 2026-05-04 00:55 | 26.11461 | -80.78088 | 7001 ft | 279 kts | 98° |
| 2026-05-04 00:55 | 26.11184 | -80.76019 | 6941 ft | 263 kts | 100° |
| 2026-05-04 00:55 | 26.10896 | -80.74056 | 6826 ft | 252 kts | 100° |
| 2026-05-04 00:56 | 26.10631 | -80.72162 | 6689 ft | 244 kts | 99° |
| 2026-05-04 00:56 | 26.10379 | -80.70347 | 6547 ft | 238 kts | 99° |
| 2026-05-04 00:56 | 26.10130 | -80.68539 | 6400 ft | 236 kts | 99° |
| 2026-05-04 00:56 | 26.09881 | -80.66738 | 6248 ft | 236 kts | 99° |
| 2026-05-04 00:57 | 26.09633 | -80.64939 | 6092 ft | 235 kts | 99° |
| 2026-05-04 00:57 | 26.09385 | -80.63141 | 5937 ft | 235 kts | 99° |
| 2026-05-04 00:57 | 26.09138 | -80.61354 | 5802 ft | 233 kts | 99° |
| 2026-05-04 00:57 | 26.08894 | -80.59568 | 5653 ft | 233 kts | 99° |
| 2026-05-04 00:58 | 26.08649 | -80.57786 | 5505 ft | 233 kts | 99° |
| 2026-05-04 00:58 | 26.08405 | -80.56010 | 5365 ft | 232 kts | 99° |
| 2026-05-04 00:58 | 26.08163 | -80.54243 | 5254 ft | 231 kts | 99° |
| 2026-05-04 00:58 | 26.07936 | -80.52462 | 5028 ft | 234 kts | 97° |
| 2026-05-04 00:59 | 26.07904 | -80.50677 | 4999 ft | 228 kts | 90° |
| 2026-05-04 00:59 | 26.07910 | -80.48911 | 4996 ft | 229 kts | 92° |
| 2026-05-04 00:59 | 26.07876 | -80.47133 | 4995 ft | 230 kts | 91° |
| 2026-05-04 00:59 | 26.07879 | -80.45953 | 4964 ft | 232 kts | 90° |
| 2026-05-04 01:00 | 26.07876 | -80.44137 | 4700 ft | 236 kts | 92° |
| 2026-05-04 01:00 | 26.07847 | -80.42310 | 4391 ft | 237 kts | 91° |
| 2026-05-04 01:00 | 26.07857 | -80.40539 | 4085 ft | 218 kts | 91° |
| 2026-05-04 01:00 | 26.07831 | -80.38858 | 3804 ft | 216 kts | 92° |
| 2026-05-04 01:01 | 26.07825 | -80.37198 | 3530 ft | 213 kts | 90° |
| 2026-05-04 01:01 | 26.07821 | -80.35569 | 3264 ft | 209 kts | 92° |
| 2026-05-04 01:01 | 26.07797 | -80.33986 | 3008 ft | 201 kts | 90° |
| 2026-05-04 01:01 | 26.07801 | -80.32459 | 2746 ft | 189 kts | 91° |
| 2026-05-04 01:02 | 26.07784 | -80.31073 | 2513 ft | 170 kts | 91° |
| 2026-05-04 01:02 | 26.07784 | -80.29821 | 2312 ft | 153 kts | 90° |
| 2026-05-04 01:02 | 26.07767 | -80.28706 | 2115 ft | 136 kts | 90° |
| 2026-05-04 01:02 | 26.07770 | -80.27687 | 1947 ft | 128 kts | 88° |
| 2026-05-04 01:03 | 26.07760 | -80.26705 | 1778 ft | 127 kts | 91° |
| 2026-05-04 01:03 | 26.07749 | -80.25729 | 1613 ft | 127 kts | 88° |
| 2026-05-04 01:03 | 26.07755 | -80.24746 | 1452 ft | 127 kts | 90° |
| 2026-05-04 01:03 | 26.07731 | -80.23760 | 1285 ft | 128 kts | 87° |
| 2026-05-04 01:04 | 26.07744 | -80.22774 | 1120 ft | 128 kts | 88° |
| 2026-05-04 01:04 | 26.07722 | -80.21773 | 959 ft | 131 kts | 88° |
| 2026-05-04 01:04 | 26.07732 | -80.20757 | 800 ft | 132 kts | 89° |
| 2026-05-04 01:04 | 26.07700 | -80.19823 | 636 ft | 115 kts | 87° |
| 2026-05-04 01:05 | 26.07707 | -80.18930 | 478 ft | 117 kts | 89° |
| 2026-05-04 01:05 | 26.07700 | -80.18027 | 347 ft | 117 kts | 88° |
| 2026-05-04 01:05 | 26.07697 | -80.17124 | 181 ft | 117 kts | 88° |
| 2026-05-04 01:05 | 26.07692 | -80.16231 | 30 ft | 109 kts | 88° |
| 2026-05-04 01:06 | 26.07680 | -80.15593 | 10 ft | 25 kts | 112° |
| 2026-05-04 01:06 | 26.07591 | -80.15542 | 11 ft | 7 kts | 133° |
| 2026-05-04 01:06 | 26.07590 | -80.15540 | 11 ft | 0 kts | 129° |
| 2026-05-04 01:06 | 26.07576 | -80.15524 | 11 ft | 10 kts | 133° |
| 2026-05-04 01:07 | 26.07506 | -80.15508 | 12 ft | 12 kts | 223° |
| 2026-05-04 01:07 | 26.07492 | -80.15595 | 13 ft | 12 kts | 271° |
| 2026-05-04 01:07 | 26.07471 | -80.15707 | 14 ft | 16 kts | 206° |
| 2026-05-04 01:07 | 26.07375 | -80.15648 | 14 ft | 18 kts | 135° |
| 2026-05-04 01:08 | 26.07308 | -80.15638 | 14 ft | 8 kts | 265° |
| 2026-05-04 01:08 | 26.07318 | -80.15704 | 14 ft | 9 kts | 317° |
| 2026-05-04 01:08 | 26.07321 | -80.15707 | 14 ft | 0 kts | 320° |